Main page
METAR-TAF:

METAR-TAF

Airports :

RAF Benson

Benson, England

latitude: 51-37N, longitude: 001-05W, elevation: 63 m

Current weather observation

The report was made 50 minutes ago, at 03:50 UTC
Wind 9 kt from the South
Temperature 9°C
Humidity 93%
Pressure 997 hPa

METAR: EGUB 240350Z AUTO 17009KT //// // ///////// 09/08 Q0997

Time: 05:40 (04:40 UTC)

Forecast

The report was made 8 hours and 40 minutes ago, at 20:00 UTC
Forecast valid from 23 at 19 UTC to 23 at 22 UTC
Wind 12 kt from the West/Southwest
Visibility 10 km or more
Broken clouds at a height of 3000 ft
Probability 30% :
Temporary
from 23 at 19 UTC to 23 at 21 UTC
Wind 15 kt from the West with gusts up to 25 kt
Probability 30% :
Temporary
from 23 at 19 UTC to 23 at 22 UTC
Visibility: 4000 m
Broken clouds at a height of 1700 ft, Cumulonimbus.
rain showers

TAF: EGUB 232000Z 2319/2322 24012KT 9999 BKN030 PROB30 TEMPO 2319/2321 26015G25KT PROB30 TEMPO 2319/2322 4000 SHRA BKN017CB

Weather observations and forecasts of more than 4000 airports (METAR and TAF reports).

The available stations are represented by yellow and red dots on the map.

Hover mouse over dot to see the name of the station.

Then click to see weather observations and forecasts.

To change the map : click on the green buttons with a black cross to zoom in, on the green button with a dash to zoom out, or on the green arrows for adjacent maps.


METAR-TAF: